Time;durP1;ratioP1;P1;durP2;ratioP2;P2;SDS_P1;SDS_P2;PMS_P1;PMS_P2;Temp;Humidity;BMP_temperature;BMP_pressure;BME280_temperature;BME280_humidity;BME280_pressure;Samples;Min_cycle;Max_cycle;Signal;HPM_P1;HPM_P2
2023/08/05 00:00:45;;;;;;;6.20;5.30;;;15.60;99.90;;;;;;5052237;28;20264;-82
2023/08/05 00:03:11;;;;;;;7.10;5.50;;;15.60;99.90;;;;;;5049746;28;21166;-80
2023/08/05 00:05:39;;;;;;;8.50;5.70;;;15.60;99.90;;;;;;5032982;28;20208;-82
2023/08/05 00:08:05;;;;;;;6.03;4.30;;;15.50;99.90;;;;;;5032175;28;20275;-83
2023/08/05 00:10:31;;;;;;;9.97;5.50;;;15.60;99.90;;;;;;5049963;28;20430;-83
2023/08/05 00:12:57;;;;;;;9.30;5.40;;;15.60;99.90;;;;;;5033345;28;20481;-82
2023/08/05 00:15:22;;;;;;;9.93;5.13;;;15.50;99.90;;;;;;5046822;28;20479;-85
2023/08/05 00:17:48;;;;;;;7.63;5.27;;;15.60;99.90;;;;;;5031116;28;21384;-83
2023/08/05 00:20:13;;;;;;;8.83;5.40;;;15.50;99.90;;;;;;5052328;28;20232;-81
2023/08/05 00:22:39;;;;;;;10.47;5.43;;;15.60;99.90;;;;;;5028802;28;21017;-83
2023/08/05 00:25:05;;;;;;;12.40;6.53;;;15.50;99.90;;;;;;5049061;28;20939;-83
2023/08/05 00:27:31;;;;;;;7.37;5.33;;;15.50;99.90;;;;;;5057153;28;20177;-85
2023/08/05 00:29:56;;;;;;;9.53;5.40;;;15.50;99.90;;;;;;5039394;28;20450;-80
2023/08/05 00:32:22;;;;;;;6.53;5.40;;;15.40;99.90;;;;;;5038748;28;20580;-83
2023/08/05 00:34:47;;;;;;;10.33;5.93;;;15.50;99.90;;;;;;5052377;28;20185;-83
2023/08/05 00:37:13;;;;;;;6.20;4.83;;;15.50;99.90;;;;;;5053588;28;20279;-83
2023/08/05 00:39:38;;;;;;;7.33;4.80;;;15.60;99.90;;;;;;5050320;28;20185;-84
2023/08/05 00:42:04;;;;;;;9.00;5.07;;;15.50;99.90;;;;;;5040536;28;20552;-85
2023/08/05 00:44:30;;;;;;;6.90;5.50;;;15.50;99.90;;;;;;5050236;28;20205;-82
2023/08/05 00:46:56;;;;;;;9.70;5.67;;;15.40;99.90;;;;;;5034663;28;20441;-82
2023/08/05 00:49:22;;;;;;;8.03;4.93;;;15.40;99.90;;;;;;5050899;28;20224;-83
2023/08/05 00:51:49;;;;;;;7.70;5.13;;;15.50;99.90;;;;;;5078339;28;20467;-80
2023/08/05 00:54:16;;;;;;;9.60;5.00;;;15.50;99.90;;;;;;5073311;28;20161;-78
2023/08/05 00:56:43;;;;;;;10.80;4.73;;;15.40;99.90;;;;;;5056139;28;20415;-80
2023/08/05 00:59:09;;;;;;;7.70;5.60;;;15.50;99.90;;;;;;5036911;28;20483;-86
2023/08/05 01:01:35;;;;;;;7.47;5.00;;;15.40;99.90;;;;;;5050970;28;20426;-82
2023/08/05 01:04:00;;;;;;;9.73;5.77;;;15.40;99.90;;;;;;5051043;28;21323;-80
2023/08/05 01:06:27;;;;;;;10.17;5.67;;;15.40;99.90;;;;;;5051587;28;20238;-84
2023/08/05 01:08:54;;;;;;;7.07;5.87;;;15.40;99.90;;;;;;5036784;28;20181;-80
2023/08/05 01:11:19;;;;;;;8.50;6.50;;;15.30;99.90;;;;;;5040180;28;20434;-80
2023/08/05 01:13:45;;;;;;;8.20;6.80;;;15.30;99.90;;;;;;5038151;28;20463;-84
2023/08/05 01:16:10;;;;;;;9.20;5.80;;;15.30;99.90;;;;;;5048225;28;20181;-80
2023/08/05 01:18:38;;;;;;;9.03;5.43;;;15.20;99.90;;;;;;5033976;28;20207;-80
2023/08/05 01:21:12;;;;;;;15.00;6.00;;;15.20;99.90;;;;;;5052498;28;20226;-81
2023/08/05 01:23:49;;;;;;;11.83;5.77;;;15.20;99.90;;;;;;5035442;28;20559;-80
2023/08/05 01:26:15;;;;;;;9.83;5.43;;;15.20;99.90;;;;;;5026354;28;20434;-80
2023/08/05 01:28:41;;;;;;;8.87;5.30;;;15.10;99.90;;;;;;5047967;28;20523;-79
2023/08/05 01:31:09;;;;;;;10.53;6.27;;;15.10;99.90;;;;;;5037214;28;20495;-81
2023/08/05 01:33:35;;;;;;;12.63;5.90;;;15.10;99.90;;;;;;5056411;28;20459;-82
2023/08/05 01:36:01;;;;;;;6.90;5.07;;;15.20;99.90;;;;;;5029136;28;20529;-82
2023/08/05 01:38:26;;;;;;;10.87;6.80;;;15.20;99.90;;;;;;5037778;28;21060;-79
2023/08/05 01:40:52;;;;;;;9.27;5.40;;;15.20;99.90;;;;;;5038648;28;20208;-82
2023/08/05 01:43:17;;;;;;;10.73;5.93;;;15.20;99.90;;;;;;5050462;28;20226;-80
2023/08/05 01:45:43;;;;;;;8.73;5.83;;;15.30;99.90;;;;;;5049434;28;20181;-82
2023/08/05 01:48:08;;;;;;;9.70;6.57;;;15.20;99.90;;;;;;5050097;28;20579;-82
2023/08/05 01:50:35;;;;;;;9.77;5.30;;;15.30;99.90;;;;;;5056749;28;20184;-84
2023/08/05 01:53:01;;;;;;;10.17;5.63;;;15.20;99.90;;;;;;5034750;28;20201;-83
2023/08/05 01:55:26;;;;;;;10.43;5.97;;;15.20;99.90;;;;;;5051713;28;20465;-82
2023/08/05 01:57:52;;;;;;;7.90;6.07;;;15.20;99.90;;;;;;5036590;28;20241;-81
2023/08/05 02:00:20;;;;;;;8.77;6.43;;;15.10;99.90;;;;;;5062499;28;20199;-82
2023/08/05 02:02:46;;;;;;;10.83;6.60;;;15.10;99.90;;;;;;5034452;28;20280;-79
2023/08/05 02:05:11;;;;;;;7.37;6.10;;;15.10;99.90;;;;;;5053300;28;20550;-82
2023/08/05 02:07:37;;;;;;;9.37;6.00;;;15.20;99.90;;;;;;5035599;28;20259;-78
2023/08/05 02:10:02;;;;;;;11.90;7.13;;;15.10;99.90;;;;;;5048913;28;20185;-81
2023/08/05 02:12:28;;;;;;;8.87;5.93;;;15.20;99.90;;;;;;5051721;28;20208;-80
2023/08/05 02:14:53;;;;;;;10.57;5.90;;;15.20;99.90;;;;;;5039635;28;20193;-81
2023/08/05 02:17:20;;;;;;;20.23;6.80;;;15.20;99.90;;;;;;5054438;28;20189;-82
2023/08/05 02:19:45;;;;;;;10.90;5.93;;;15.20;99.90;;;;;;5038018;28;20192;-81
2023/08/05 02:22:11;;;;;;;14.07;6.83;;;15.20;99.90;;;;;;5039487;28;20474;-80
2023/08/05 02:24:36;;;;;;;16.73;6.50;;;15.10;99.90;;;;;;5037266;28;20212;-82
2023/08/05 02:27:02;;;;;;;9.20;6.50;;;15.20;99.90;;;;;;5032002;28;20279;-79
2023/08/05 02:29:28;;;;;;;12.03;7.03;;;15.20;99.90;;;;;;5051633;28;20181;-78
2023/08/05 02:31:53;;;;;;;9.70;5.83;;;15.20;99.90;;;;;;5039647;28;20230;-79
2023/08/05 02:34:19;;;;;;;12.40;6.03;;;15.20;99.90;;;;;;5035028;28;20767;-79
2023/08/05 02:36:44;;;;;;;8.40;5.87;;;15.10;99.90;;;;;;5049354;28;20185;-80
2023/08/05 02:39:10;;;;;;;14.37;7.53;;;15.10;99.90;;;;;;5060220;28;20181;-81
2023/08/05 02:41:35;;;;;;;11.63;7.70;;;15.10;99.90;;;;;;5035555;28;20206;-81
2023/08/05 02:44:01;;;;;;;10.93;6.97;;;15.10;99.90;;;;;;5054115;28;20244;-81
2023/08/05 02:46:26;;;;;;;12.30;6.43;;;;;;;;;;5054929;28;20203;-82
2023/08/05 02:48:52;;;;;;;15.60;6.20;;;15.00;99.90;;;;;;5059519;28;20176;-81
2023/08/05 02:51:17;;;;;;;11.07;6.90;;;15.00;99.90;;;;;;5060998;28;20439;-82
2023/08/05 02:53:44;;;;;;;15.83;7.07;;;14.90;99.90;;;;;;5060951;28;20207;-83
2023/08/05 02:56:09;;;;;;;10.40;6.57;;;14.90;99.90;;;;;;5059213;28;20192;-82
2023/08/05 02:58:35;;;;;;;11.40;6.37;;;14.90;99.90;;;;;;5049769;28;20441;-83
2023/08/05 03:01:05;;;;;;;11.20;6.67;;;14.80;99.90;;;;;;5062465;28;20199;-82
2023/08/05 03:03:31;;;;;;;12.40;6.70;;;14.70;99.90;;;;;;5047222;28;20280;-83
2023/08/05 03:05:56;;;;;;;15.10;7.80;;;14.70;99.90;;;;;;5057254;28;20473;-79
2023/08/05 03:08:22;;;;;;;12.43;7.00;;;14.60;99.90;;;;;;5056665;28;20189;-84
2023/08/05 03:10:57;;;;;;;9.73;7.17;;;14.60;99.90;;;;;;5048584;28;20555;-81
2023/08/05 03:13:22;;;;;;;13.93;7.63;;;14.70;99.90;;;;;;5059690;28;20203;-80
2023/08/05 03:15:48;;;;;;;18.33;8.53;;;14.70;99.90;;;;;;5046243;28;21057;-81
2023/08/05 03:18:13;;;;;;;15.53;7.87;;;14.70;99.90;;;;;;5057952;28;20177;-83
2023/08/05 03:20:39;;;;;;;24.50;7.73;;;14.80;99.90;;;;;;5056592;28;20242;-81
2023/08/05 03:23:04;;;;;;;14.57;7.43;;;14.70;99.90;;;;;;5057318;28;20856;-80
2023/08/05 03:25:30;;;;;;;16.07;7.77;;;14.80;99.90;;;;;;5058930;28;20199;-83
2023/08/05 03:27:55;;;;;;;12.53;7.00;;;14.80;99.90;;;;;;5060210;28;20791;-81
2023/08/05 03:30:21;;;;;;;12.13;8.20;;;14.80;99.90;;;;;;5058807;28;20184;-80
2023/08/05 03:32:47;;;;;;;16.53;7.10;;;14.80;99.90;;;;;;5050879;28;20773;-82
2023/08/05 03:35:13;;;;;;;14.47;8.50;;;14.80;99.90;;;;;;5055745;28;20180;-80
2023/08/05 03:37:38;;;;;;;12.60;7.40;;;14.90;99.90;;;;;;5047103;28;20441;-83
2023/08/05 03:40:05;;;;;;;11.57;7.53;;;14.80;99.90;;;;;;5056670;28;20615;-79
2023/08/05 03:42:30;;;;;;;12.23;6.73;;;14.80;99.90;;;;;;5057620;28;20299;-84
2023/08/05 03:44:56;;;;;;;16.67;7.03;;;14.70;99.90;;;;;;5063178;28;20558;-82
2023/08/05 03:47:21;;;;;;;13.17;8.57;;;14.80;99.90;;;;;;5050144;28;20648;-82
2023/08/05 03:49:47;;;;;;;12.40;7.77;;;14.80;99.90;;;;;;5044744;28;20226;-80
2023/08/05 03:52:13;;;;;;;16.20;8.53;;;14.80;99.90;;;;;;5060326;28;20200;-82
2023/08/05 03:54:39;;;;;;;13.43;7.97;;;14.70;99.90;;;;;;5059225;28;20172;-80
2023/08/05 03:57:08;;;;;;;13.53;8.93;;;14.70;99.90;;;;;;5059341;28;20431;-83
2023/08/05 03:59:34;;;;;;;11.97;7.00;;;14.60;99.90;;;;;;5038758;28;20184;-81
2023/08/05 04:02:00;;;;;;;10.73;7.30;;;14.60;99.90;;;;;;5039069;28;20447;-81
2023/08/05 04:04:25;;;;;;;10.70;7.03;;;14.60;99.90;;;;;;5055107;28;20478;-80
2023/08/05 04:06:51;;;;;;;13.67;7.70;;;14.70;99.90;;;;;;5056468;28;20181;-80
2023/08/05 04:09:18;;;;;;;12.20;7.27;;;14.70;99.90;;;;;;5043993;28;20184;-82
2023/08/05 04:11:45;;;;;;;13.13;7.70;;;14.70;99.90;;;;;;5044940;28;20699;-80
2023/08/05 04:14:11;;;;;;;14.70;8.53;;;14.70;99.90;;;;;;5061066;28;20429;-79
2023/08/05 04:16:37;;;;;;;9.90;6.67;;;14.80;99.90;;;;;;5036047;28;20448;-81
2023/08/05 04:19:03;;;;;;;14.63;7.87;;;14.80;99.90;;;;;;5034813;28;20444;-81
2023/08/05 04:21:35;;;;;;;20.83;7.10;;;14.80;99.90;;;;;;5054749;28;20207;-81
2023/08/05 04:24:01;;;;;;;16.17;7.10;;;14.80;99.90;;;;;;5051200;28;20471;-82
2023/08/05 04:26:27;;;;;;;14.70;6.90;;;14.80;99.90;;;;;;5044629;28;20919;-82
2023/08/05 04:28:53;;;;;;;16.60;7.50;;;14.90;99.90;;;;;;5045872;28;20542;-82
2023/08/05 04:31:18;;;;;;;20.10;8.40;;;14.80;99.90;;;;;;5053390;28;20517;-82
2023/08/05 04:33:44;;;;;;;11.43;7.40;;;14.80;99.90;;;;;;5052224;28;20200;-82
2023/08/05 04:36:09;;;;;;;18.13;8.60;;;14.80;99.90;;;;;;5054629;28;20198;-82
2023/08/05 04:38:35;;;;;;;12.77;7.53;;;14.80;99.90;;;;;;5050734;28;20192;-83
2023/08/05 04:41:00;;;;;;;10.70;7.40;;;14.80;99.90;;;;;;5033841;28;20204;-80
2023/08/05 04:43:26;;;;;;;12.07;7.07;;;14.90;99.90;;;;;;5039383;28;20204;-80
2023/08/05 04:45:51;;;;;;;11.77;8.20;;;14.90;99.90;;;;;;5052102;28;20173;-80
2023/08/05 04:48:17;;;;;;;11.63;6.70;;;14.80;99.90;;;;;;5048648;28;20181;-81
2023/08/05 04:50:43;;;;;;;16.30;7.90;;;14.90;99.90;;;;;;5032664;28;20270;-82
2023/08/05 04:53:09;;;;;;;14.70;8.13;;;14.90;99.90;;;;;;5033837;28;20456;-80
2023/08/05 04:55:34;;;;;;;13.50;7.40;;;14.90;99.90;;;;;;5058329;28;20435;-83
2023/08/05 04:58:01;;;;;;;12.00;7.70;;;14.90;99.90;;;;;;5047790;28;20487;-83
2023/08/05 05:00:27;;;;;;;18.47;6.90;;;14.90;99.90;;;;;;5035876;28;20195;-83
2023/08/05 05:02:53;;;;;;;9.73;7.37;;;14.90;99.90;;;;;;5050629;28;20462;-82
2023/08/05 05:05:18;;;;;;;9.60;6.57;;;14.90;99.90;;;;;;5048207;28;20624;-82
2023/08/05 05:07:44;;;;;;;11.60;7.37;;;14.90;99.90;;;;;;5053563;28;20451;-81
2023/08/05 05:10:09;;;;;;;11.67;7.40;;;15.00;99.90;;;;;;5034216;28;20191;-80
2023/08/05 05:12:35;;;;;;;11.20;7.33;;;15.00;99.90;;;;;;5053337;28;20718;-82
2023/08/05 05:15:01;;;;;;;16.63;7.33;;;14.90;99.90;;;;;;5049209;28;20188;-83
2023/08/05 05:17:33;;;;;;;9.57;7.00;;;14.90;99.90;;;;;;5049436;28;20196;-81
2023/08/05 05:19:58;;;;;;;10.90;6.87;;;15.00;99.90;;;;;;5049923;28;20185;-81
2023/08/05 05:22:24;;;;;;;10.20;8.07;;;15.00;99.90;;;;;;5044950;28;20446;-82
2023/08/05 05:24:50;;;;;;;9.03;6.40;;;15.00;99.90;;;;;;5054927;28;20259;-83
2023/08/05 05:27:17;;;;;;;15.23;7.47;;;15.10;99.90;;;;;;5034271;28;20566;-82
2023/08/05 05:29:44;;;;;;;10.07;6.60;;;15.10;99.90;;;;;;5034436;28;20188;-81
2023/08/05 05:32:10;;;;;;;8.90;6.80;;;15.20;99.90;;;;;;5049818;28;20457;-83
2023/08/05 05:34:36;;;;;;;9.57;5.83;;;15.20;99.90;;;;;;5034572;28;20428;-82
2023/08/05 05:37:01;;;;;;;8.57;5.60;;;15.20;99.90;;;;;;5055535;28;20816;-79
2023/08/05 05:39:27;;;;;;;7.17;5.53;;;15.30;99.90;;;;;;5034099;28;20502;-81
2023/08/05 05:41:54;;;;;;;8.57;6.63;;;15.20;99.90;;;;;;5053322;28;20205;-84
2023/08/05 05:44:20;;;;;;;7.70;6.00;;;15.30;99.90;;;;;;5035698;28;20539;-82
2023/08/05 05:46:46;;;;;;;9.37;5.67;;;;;;;;;;5053312;28;20506;-81
2023/08/05 05:49:12;;;;;;;9.60;5.83;;;15.40;99.90;;;;;;5047792;28;20298;-83
2023/08/05 05:51:37;;;;;;;9.97;5.50;;;15.50;99.90;;;;;;5052322;28;20923;-81
2023/08/05 05:54:03;;;;;;;19.27;6.23;;;15.50;99.90;;;;;;5051964;28;20185;-80
2023/08/05 05:56:28;;;;;;;10.67;6.33;;;15.50;99.90;;;;;;5050089;28;20193;-81
2023/08/05 05:58:54;;;;;;;11.37;6.53;;;15.50;99.90;;;;;;5052862;28;20181;-83
2023/08/05 06:01:20;;;;;;;12.40;6.47;;;15.60;99.90;;;;;;5038055;28;20276;-80
2023/08/05 06:03:46;;;;;;;8.90;6.00;;;15.60;99.90;;;;;;5051149;28;20469;-79
2023/08/05 06:06:12;;;;;;;8.93;5.90;;;15.60;99.90;;;;;;5036846;28;20444;-80
2023/08/05 06:08:39;;;;;;;9.30;5.47;;;15.60;99.90;;;;;;5062699;28;20188;-78
2023/08/05 06:11:04;;;;;;;9.00;4.73;;;15.80;99.90;;;;;;5037619;28;20557;-80
2023/08/05 06:13:30;;;;;;;9.20;5.13;;;16.00;99.90;;;;;;5037697;28;20215;-84
2023/08/05 06:15:56;;;;;;;10.33;6.30;;;16.10;99.90;;;;;;5054202;28;20443;-84
2023/08/05 06:18:21;;;;;;;8.60;5.37;;;16.20;99.90;;;;;;5050434;28;20496;-80
2023/08/05 06:20:48;;;;;;;12.13;7.00;;;16.30;99.90;;;;;;5052139;28;20817;-83
2023/08/05 06:23:14;;;;;;;7.40;6.10;;;16.50;99.90;;;;;;5052461;28;20216;-82
2023/08/05 06:25:39;;;;;;;12.70;5.53;;;16.70;99.90;;;;;;5032903;28;20493;-84
2023/08/05 06:28:05;;;;;;;9.43;5.47;;;16.90;99.90;;;;;;5053731;28;20484;-80
2023/08/05 06:30:31;;;;;;;14.50;5.87;;;17.00;99.90;;;;;;5059867;28;20165;-85
2023/08/05 06:32:56;;;;;;;7.77;5.37;;;17.20;99.90;;;;;;5054164;28;20200;-84
2023/08/05 06:35:22;;;;;;;11.60;4.50;;;17.80;99.90;;;;;;5053655;28;20181;-85
2023/08/05 06:37:47;;;;;;;9.27;4.87;;;18.30;99.90;;;;;;5052245;28;20212;-84
2023/08/05 06:40:13;;;;;;;9.50;5.40;;;18.60;99.90;;;;;;5044877;28;20173;-82
2023/08/05 06:42:38;;;;;;;6.90;5.23;;;18.00;99.90;;;;;;5035133;28;20208;-83
2023/08/05 06:45:05;;;;;;;6.20;4.60;;;19.50;99.90;;;;;;5030595;28;20219;-82
2023/08/05 06:47:31;;;;;;;6.33;5.00;;;21.20;99.90;;;;;;5030231;28;20181;-80
2023/08/05 06:49:57;;;;;;;7.07;4.63;;;23.50;99.90;;;;;;5033818;28;20462;-82
2023/08/05 06:52:23;;;;;;;7.27;4.80;;;23.50;99.90;;;;;;5048857;28;20570;-80
2023/08/05 06:54:49;;;;;;;6.43;3.83;;;;;;;;;;5046490;28;20870;-81
2023/08/05 06:57:15;;;;;;;6.47;4.50;;;24.70;99.90;;;;;;5048687;28;20181;-80
2023/08/05 06:59:40;;;;;;;5.27;4.30;;;24.50;99.90;;;;;;5050811;28;20447;-80
2023/08/05 07:02:06;;;;;;;5.03;3.93;;;24.20;99.90;;;;;;5053845;28;20684;-84
2023/08/05 07:04:32;;;;;;;8.73;3.80;;;24.30;99.90;;;;;;5047152;28;20211;-81
2023/08/05 07:06:58;;;;;;;5.63;5.10;;;25.30;99.90;;;;;;5031092;28;20198;-82
2023/08/05 07:09:24;;;;;;;8.23;4.90;;;25.40;99.90;;;;;;5052779;28;20477;-81
2023/08/05 07:11:49;;;;;;;9.23;4.60;;;26.00;99.90;;;;;;5051396;28;21015;-82
2023/08/05 07:14:15;;;;;;;6.30;3.80;;;25.60;99.90;;;;;;5037398;28;20200;-83
2023/08/05 07:16:40;;;;;;;6.50;3.70;;;25.00;99.90;;;;;;5034609;28;20203;-81
2023/08/05 07:19:06;;;;;;;7.23;3.53;;;24.50;99.90;;;;;;5050938;28;20226;-82
2023/08/05 07:21:31;;;;;;;7.23;3.80;;;23.70;99.90;;;;;;5052104;28;20217;-82
2023/08/05 07:23:56;;;;;;;5.07;3.73;;;25.60;99.90;;;;;;5049877;28;20204;-80
2023/08/05 07:26:22;;;;;;;6.57;4.37;;;25.60;99.90;;;;;;5056605;28;20974;-81
2023/08/05 07:28:49;;;;;;;5.10;4.03;;;;;;;;;;5044487;28;20193;-84
2023/08/05 07:31:16;;;;;;;3.77;3.47;;;;;;;;;;5048083;28;20184;-83
2023/08/05 07:33:43;;;;;;;5.50;3.10;;;26.90;99.90;;;;;;5042307;28;20456;-83
2023/08/05 07:36:12;;;;;;;5.20;3.87;;;26.40;99.90;;;;;;5056685;28;20449;-79
2023/08/05 07:38:40;;;;;;;4.60;3.00;;;27.10;99.90;;;;;;5049380;28;20483;-80
2023/08/05 07:41:06;;;;;;;4.57;4.10;;;26.60;99.90;;;;;;5036576;28;20960;-80
2023/08/05 07:43:35;;;;;;;6.00;3.57;;;25.00;99.90;;;;;;5042979;28;20461;-86
2023/08/05 07:46:05;;;;;;;5.13;3.70;;;25.20;99.90;;;;;;5035998;28;20460;-82
2023/08/05 07:48:36;;;;;;;5.10;4.00;;;25.50;99.90;;;;;;5046983;28;20445;-82
2023/08/05 07:51:11;;;;;;;8.23;3.67;;;26.10;99.90;;;;;;5035738;28;20460;-81
2023/08/05 07:53:36;;;;;;;4.77;3.70;;;27.10;99.90;;;;;;5048591;28;21010;-81
2023/08/05 07:56:09;;;;;;;5.63;3.63;;;27.50;99.90;;;;;;5049603;28;20440;-80
2023/08/05 07:58:35;;;;;;;7.57;3.90;;;27.40;99.90;;;;;;5033159;28;20196;-80
2023/08/05 08:01:00;;;;;;;7.97;3.93;;;25.90;99.90;;;;;;5050402;28;20440;-82
2023/08/05 08:03:29;;;;;;;9.30;4.73;;;25.90;99.90;;;;;;5039807;28;20223;-80
2023/08/05 08:05:54;;;;;;;6.40;4.27;;;26.50;99.90;;;;;;5047140;28;20258;-81
2023/08/05 08:08:20;;;;;;;5.60;3.40;;;25.40;99.90;;;;;;5032517;28;20488;-83
2023/08/05 08:10:46;;;;;;;5.87;3.27;;;26.30;99.90;;;;;;5033504;28;20799;-82
2023/08/05 08:13:12;;;;;;;6.00;3.10;;;;;;;;;;5030731;28;20454;-80
2023/08/05 08:15:38;;;;;;;8.17;3.40;;;;;;;;;;5043397;28;20182;-80
2023/08/05 08:18:04;;;;;;;4.03;3.63;;;;;;;;;;5037204;28;20536;-79
2023/08/05 08:20:30;;;;;;;5.07;3.53;;;;;;;;;;5048783;28;20431;-82
2023/08/05 08:22:55;;;;;;;10.30;3.50;;;27.70;99.90;;;;;;5031190;28;20472;-82
2023/08/05 08:25:21;;;;;;;4.73;3.27;;;26.60;99.90;;;;;;5031621;28;20470;-80
2023/08/05 08:27:46;;;;;;;6.47;3.43;;;26.40;99.90;;;;;;5032970;28;21388;-80
2023/08/05 08:30:12;;;;;;;4.40;3.07;;;;;;;;;;5044628;28;20946;-83
2023/08/05 08:32:38;;;;;;;3.90;2.87;;;25.70;99.90;;;;;;5044252;28;20202;-81
2023/08/05 08:35:04;;;;;;;5.90;2.93;;;25.60;99.90;;;;;;5045018;28;21545;-79
2023/08/05 08:37:30;;;;;;;4.33;2.90;;;;;;;;;;5039794;28;20181;-81
2023/08/05 08:39:56;;;;;;;4.40;2.93;;;;;;;;;;5045486;28;20436;-81
2023/08/05 08:42:25;;;;;;;3.33;3.03;;;27.10;99.90;;;;;;5032636;28;20452;-81
2023/08/05 08:44:51;;;;;;;6.23;3.30;;;27.10;99.90;;;;;;5039401;28;20456;-85
2023/08/05 08:47:17;;;;;;;3.93;3.40;;;;;;;;;;5063678;28;20472;-86
2023/08/05 08:49:45;;;;;;;6.53;3.00;;;26.20;99.90;;;;;;5045166;28;20435;-83
2023/08/05 08:52:18;;;;;;;4.40;2.67;;;27.60;99.90;;;;;;5044183;28;20829;-83
2023/08/05 08:54:44;;;;;;;4.10;2.80;;;;;;;;;;5032558;28;20435;-84
2023/08/05 08:57:13;;;;;;;3.07;2.77;;;;;;;;;;5029914;28;20443;-84
2023/08/05 08:59:39;;;;;;;4.57;2.57;;;;;;;;;;5051349;28;20433;-86
2023/08/05 09:02:10;;;;;;;5.93;2.63;;;25.00;99.90;;;;;;5048959;28;20450;-85
2023/08/05 09:04:37;;;;;;;5.13;2.20;;;;;;;;;;5064826;28;20459;-84
2023/08/05 09:07:03;;;;;;;8.27;2.83;;;;;;;;;;5031195;28;20434;-84
2023/08/05 09:09:31;;;;;;;5.10;2.93;;;27.60;99.90;;;;;;5030252;28;20516;-84
2023/08/05 09:11:58;;;;;;;3.37;2.97;;;29.60;99.10;;;;;;5033028;28;20498;-84
2023/08/05 09:14:24;;;;;;;2.97;2.67;;;27.40;99.90;;;;;;5033123;28;20450;-85
2023/08/05 09:16:57;;;;;;;3.40;2.77;;;24.90;99.90;;;;;;5048409;28;20431;-84
2023/08/05 09:19:29;;;;;;;2.60;2.27;;;23.70;99.90;;;;;;5033143;28;20200;-83
2023/08/05 09:21:56;;;;;;;4.80;3.03;;;23.00;99.90;;;;;;5033306;28;20520;-82
2023/08/05 09:24:25;;;;;;;3.63;2.50;;;24.20;99.90;;;;;;5045752;28;20459;-82
2023/08/05 09:26:56;;;;;;;6.23;3.10;;;24.20;99.90;;;;;;5049311;28;20429;-83
2023/08/05 09:29:22;;;;;;;7.50;2.67;;;;;;;;;;5032109;28;20495;-83
2023/08/05 09:32:14;;;;;;;4.40;2.53;;;25.80;99.90;;;;;;5048085;28;20553;-85
2023/08/05 09:34:45;;;;;;;2.97;2.30;;;25.60;99.90;;;;;;5041606;28;20529;-82
2023/08/05 09:37:13;;;;;;;4.00;3.10;;;;;;;;;;5050059;28;20500;-82
2023/08/05 09:39:47;;;;;;;4.33;3.40;;;23.80;99.90;;;;;;5034735;28;20475;-83
2023/08/05 09:42:24;;;;;;;4.07;3.30;;;22.60;99.90;;;;;;5033184;28;20565;-84
2023/08/05 09:44:55;;;;;;;4.03;3.03;;;21.70;99.90;;;;;;5046160;28;20449;-81
2023/08/05 09:47:25;;;;;;;3.40;2.80;;;22.50;99.90;;;;;;5044050;28;21387;-82
2023/08/05 09:49:52;;;;;;;3.17;2.63;;;24.10;99.90;;;;;;5048525;28;20522;-84
2023/08/05 09:52:20;;;;;;;4.60;2.80;;;25.10;99.90;;;;;;5033475;28;20460;-82
2023/08/05 09:55:13;;;;;;;5.03;2.90;;;24.90;99.90;;;;;;5038262;28;20510;-83
2023/08/05 09:57:39;;;;;;;3.80;2.90;;;;;;;;;;5029734;28;20450;-85
2023/08/05 10:00:13;;;;;;;4.00;2.47;;;25.10;99.90;;;;;;5037720;28;20489;-83
2023/08/05 10:02:41;;;;;;;9.10;3.10;;;24.70;99.90;;;;;;5030906;28;20476;-83
2023/08/05 10:05:09;;;;;;;4.70;2.83;;;25.20;99.90;;;;;;5046737;28;20460;-84
2023/08/05 10:07:36;;;;;;;5.13;2.70;;;24.80;99.90;;;;;;5042405;28;20494;-85
2023/08/05 10:10:12;;;;;;;2.23;2.03;;;24.60;99.90;;;;;;5044512;28;20433;-85
2023/08/05 10:12:46;;;;;;;3.40;2.43;;;24.60;99.90;;;;;;5045171;28;20538;-85
2023/08/05 10:15:19;;;;;;;2.00;1.80;;;24.50;99.90;;;;;;5041896;28;20445;-88
2023/08/05 10:17:46;;;;;;;2.90;2.30;;;24.10;99.90;;;;;;5024669;28;20522;-83
2023/08/05 10:20:12;;;;;;;5.27;2.80;;;;;;;;;;5043370;28;20452;-86
2023/08/05 10:22:39;;;;;;;2.50;2.30;;;;;;;;;;5034755;28;20492;-83
2023/08/05 10:25:06;;;;;;;2.50;2.30;;;24.20;99.90;;;;;;5032949;28;20469;-85
2023/08/05 10:27:43;;;;;;;2.30;2.03;;;23.30;99.90;;;;;;5029480;28;20427;-85
2023/08/05 10:30:10;;;;;;;3.77;2.37;;;23.80;99.90;;;;;;5046009;28;20506;-85
2023/08/05 10:32:49;;;;;;;2.57;2.37;;;24.00;99.90;;;;;;5027838;28;20513;-86
2023/08/05 10:35:50;;;;;;;3.23;2.60;;;23.90;99.90;;;;;;5050913;28;20525;-82
2023/08/05 10:38:23;;;;;;;3.43;2.63;;;23.00;99.90;;;;;;4984611;28;20838;-82
2023/08/05 10:40:52;;;;;;;3.60;2.67;;;23.00;99.90;;;;;;5025169;28;20457;-84
2023/08/05 10:43:30;;;;;;;2.97;2.50;;;22.90;99.90;;;;;;5049418;28;20551;-82
2023/08/05 10:45:56;;;;;;;2.67;2.37;;;22.70;99.90;;;;;;5031948;28;20545;-84
2023/08/05 10:48:36;;;;;;;4.07;2.60;;;22.70;99.90;;;;;;5049191;28;20442;-82
2023/08/05 10:51:24;;;;;;;3.67;2.20;;;22.70;99.90;;;;;;5032790;28;20557;-84
2023/08/05 10:53:56;;;;;;;4.63;2.87;;;22.80;99.90;;;;;;5027134;28;20467;-82
2023/08/05 10:56:32;;;;;;;5.90;3.23;;;23.10;99.90;;;;;;5043749;28;20443;-83
2023/08/05 10:59:02;;;;;;;3.27;2.47;;;23.30;99.90;;;;;;5047997;28;20816;-84
2023/08/05 11:01:56;;;;;;;4.20;2.20;;;23.20;99.90;;;;;;5054367;28;20446;-82
2023/08/05 11:04:29;;;;;;;2.13;1.93;;;23.30;99.90;;;;;;5033120;28;20523;-81
2023/08/05 11:06:56;;;;;;;4.80;3.57;;;23.10;99.90;;;;;;5045871;28;20422;-82
2023/08/05 11:09:22;;;;;;;8.57;2.50;;;23.20;99.90;;;;;;5035712;28;20435;-82
2023/08/05 11:11:48;;;;;;;3.40;3.07;;;23.00;99.90;;;;;;5049808;28;20451;-84
2023/08/05 11:14:16;;;;;;;6.60;2.83;;;23.10;99.90;;;;;;5031065;28;20437;-84
2023/08/05 11:16:45;;;;;;;3.57;2.60;;;23.10;99.90;;;;;;5063163;28;20253;-82
2023/08/05 11:19:12;;;;;;;2.77;2.50;;;23.20;99.90;;;;;;5036979;28;20535;-81
2023/08/05 11:21:38;;;;;;;4.20;2.83;;;23.20;99.90;;;;;;5049606;28;20447;-84
2023/08/05 11:24:03;;;;;;;9.77;2.73;;;23.20;99.90;;;;;;5049059;28;20525;-84
2023/08/05 11:26:29;;;;;;;3.63;2.37;;;23.00;99.90;;;;;;5032283;28;20447;-83
2023/08/05 11:29:00;;;;;;;5.07;2.97;;;22.90;99.90;;;;;;5049645;28;20165;-84
2023/08/05 11:31:26;;;;;;;3.00;2.37;;;22.50;99.90;;;;;;5044701;28;20170;-84
2023/08/05 11:33:53;;;;;;;4.10;2.93;;;22.10;99.90;;;;;;5029512;28;20450;-82
2023/08/05 11:36:24;;;;;;;3.63;2.43;;;22.00;99.90;;;;;;5035410;28;20435;-82
2023/08/05 11:38:50;;;;;;;5.30;2.87;;;21.90;99.90;;;;;;5031995;28;21234;-84
2023/08/05 11:41:16;;;;;;;3.73;3.00;;;21.80;99.90;;;;;;5042610;28;20430;-85
2023/08/05 11:43:42;;;;;;;4.30;2.80;;;21.80;99.90;;;;;;5032686;28;20478;-84
2023/08/05 11:46:22;;;;;;;3.97;2.90;;;21.90;99.90;;;;;;5033449;28;20538;-84
2023/08/05 11:48:47;;;;;;;4.70;2.80;;;22.20;99.90;;;;;;5034135;28;20177;-85
2023/08/05 11:51:13;;;;;;;4.03;2.33;;;22.60;99.90;;;;;;5044971;28;20798;-83
2023/08/05 11:53:47;;;;;;;3.90;2.63;;;22.80;99.90;;;;;;5042041;28;20205;-84
2023/08/05 11:56:23;;;;;;;2.53;2.27;;;23.20;99.90;;;;;;5055811;28;20274;-84
2023/08/05 11:58:48;;;;;;;2.30;2.07;;;;;;;;;;5047543;28;20530;-85
2023/08/05 12:01:14;;;;;;;2.83;2.03;;;;;;;;;;5050932;28;20937;-84
2023/08/05 12:03:40;;;;;;;3.47;2.67;;;22.70;99.90;;;;;;5032502;28;20554;-83
2023/08/05 12:06:06;;;;;;;2.90;2.37;;;22.50;99.90;;;;;;5029521;28;20439;-81
2023/08/05 12:08:39;;;;;;;4.10;1.87;;;22.40;99.90;;;;;;5035078;28;20431;-82
2023/08/05 12:11:05;;;;;;;2.80;2.43;;;22.40;99.90;;;;;;5063851;28;20223;-86
2023/08/05 12:13:36;;;;;;;3.77;2.40;;;22.30;99.90;;;;;;5055267;28;20462;-85
2023/08/05 12:16:14;;;;;;;6.13;2.97;;;22.20;99.90;;;;;;5033458;28;20184;-85
2023/08/05 12:18:44;;;;;;;3.43;2.73;;;21.90;99.90;;;;;;5043696;28;20485;-82
2023/08/05 12:21:10;;;;;;;2.60;2.10;;;22.20;99.90;;;;;;5027775;28;21507;-83
2023/08/05 12:23:40;;;;;;;2.87;2.23;;;22.50;99.90;;;;;;5044763;28;20466;-83
2023/08/05 12:26:06;;;;;;;2.73;2.23;;;;;;;;;;5029956;28;20438;-85
2023/08/05 12:28:32;;;;;;;4.73;2.13;;;22.40;99.90;;;;;;5047795;28;20439;-82
2023/08/05 12:30:57;;;;;;;2.60;1.90;;;22.30;99.90;;;;;;5064744;28;20454;-84
2023/08/05 12:33:23;;;;;;;7.17;1.87;;;22.20;99.90;;;;;;5042517;28;20874;-85
2023/08/05 12:35:48;;;;;;;3.00;1.80;;;22.00;99.90;;;;;;5052360;28;20180;-81
2023/08/05 12:38:14;;;;;;;5.43;1.83;;;22.30;99.90;;;;;;5026353;28;22778;-85
2023/08/05 12:40:40;;;;;;;2.53;1.93;;;22.50;99.90;;;;;;5029638;28;20173;-86
2023/08/05 12:43:05;;;;;;;3.50;2.10;;;22.70;99.90;;;;;;5041786;28;20228;-84
2023/08/05 12:45:31;;;;;;;3.80;2.00;;;22.60;99.90;;;;;;5034663;28;20193;-83
2023/08/05 12:47:56;;;;;;;5.23;2.37;;;22.30;99.90;;;;;;5043297;28;20583;-82
2023/08/05 12:50:22;;;;;;;3.40;2.00;;;;;;;;;;5044256;28;20177;-82
2023/08/05 12:52:48;;;;;;;6.20;1.90;;;22.40;99.90;;;;;;5027875;28;20204;-87